createdAt,value
2016-06-02T00:00:34.738Z,0
2016-06-02T00:01:20.598Z,0
2016-06-02T00:02:20.444Z,0
2016-06-02T00:03:20.619Z,0
2016-06-02T00:04:20.715Z,0
2016-06-02T00:05:20.671Z,0
2016-06-02T00:06:20.548Z,0
2016-06-02T00:08:20.757Z,0
2016-06-02T00:10:35.906Z,0
2016-06-02T00:11:20.828Z,0
2016-06-02T00:13:20.724Z,0
2016-06-02T00:14:20.898Z,0
2016-06-02T00:15:20.776Z,0
2016-06-02T00:16:20.794Z,0
2016-06-02T00:17:20.969Z,0
2016-06-02T00:18:21.003Z,0
2016-06-02T00:19:20.881Z,0
2016-06-02T00:20:20.883Z,0
2016-06-02T00:21:21.073Z,0
2016-06-02T00:22:35.297Z,0
2016-06-02T00:23:35.316Z,0
2016-06-02T00:24:21.316Z,0
2016-06-02T00:25:21.506Z,0
2016-06-02T00:26:21.196Z,0
2016-06-02T00:27:35.249Z,0
2016-06-02T00:28:21.249Z,0
2016-06-02T00:30:21.317Z,0
2016-06-02T00:31:21.335Z,0
2016-06-02T00:32:21.352Z,0
2016-06-02T00:33:21.215Z,0
2016-06-02T00:34:21.390Z,0
2016-06-02T00:36:21.442Z,0
2016-06-02T00:37:35.651Z,0
2016-06-02T00:38:21.338Z,0
2016-06-02T00:39:35.562Z,0
2016-06-02T00:40:22.531Z,0
2016-06-02T00:41:21.565Z,0
2016-06-02T00:42:21.583Z,0
2016-06-02T00:45:21.670Z,0
2016-06-02T00:46:21.687Z,0
2016-06-02T00:47:21.706Z,0
2016-06-02T00:48:21.740Z,0
2016-06-02T00:49:35.948Z,0
2016-06-02T00:50:21.808Z,0
2016-06-02T00:51:21.811Z,0
2016-06-02T00:52:21.845Z,0
2016-06-02T00:53:21.706Z,0
2016-06-02T00:54:21.897Z,0
2016-06-02T00:55:23.400Z,0
2016-06-02T00:56:21.949Z,0
2016-06-02T00:57:36.157Z,0
2016-06-02T00:58:22.001Z,0
2016-06-02T00:59:36.038Z,0
2016-06-02T01:00:22.022Z,0
2016-06-02T01:01:22.103Z,0
2016-06-02T01:02:22.090Z,0
2016-06-02T01:03:22.124Z,0
2016-06-02T01:04:21.971Z,0
2016-06-02T01:05:22.160Z,0
2016-06-02T01:06:22.179Z,0
2016-06-02T01:09:36.455Z,0
2016-06-02T01:10:22.502Z,0
2016-06-02T01:11:22.161Z,0
2016-06-02T01:12:21.867Z,0
2016-06-02T01:13:22.370Z,0
2016-06-02T01:14:22.076Z,0
2016-06-02T01:15:36.596Z,0
2016-06-02T01:16:22.284Z,0
2016-06-02T01:18:22.321Z,0
2016-06-02T01:19:22.339Z,0
2016-06-02T01:20:22.357Z,0
2016-06-02T01:21:22.548Z,0
2016-06-02T01:22:22.581Z,0
2016-06-02T01:23:36.634Z,0
2016-06-02T01:24:22.462Z,0
2016-06-02T01:25:23.028Z,0
2016-06-02T01:26:22.670Z,0
2016-06-02T01:27:22.689Z,0
2016-06-02T01:28:22.708Z,0
2016-06-02T01:29:22.600Z,0
2016-06-02T01:30:36.950Z,0
2016-06-02T01:31:22.637Z,0
2016-06-02T01:32:22.811Z,0
2016-06-02T01:33:22.846Z,0
2016-06-02T01:34:22.708Z,0
2016-06-02T01:35:22.882Z,0
2016-06-02T01:36:22.900Z,0
2016-06-02T01:37:37.124Z,0
2016-06-02T01:38:22.952Z,0
2016-06-02T01:39:22.987Z,0
2016-06-02T01:40:37.321Z,0
2016-06-02T01:41:22.883Z,0
2016-06-02T01:42:23.057Z,0
2016-06-02T01:43:23.076Z,0
2016-06-02T01:45:23.128Z,0
2016-06-02T01:46:23.146Z,0
2016-06-02T01:47:23.023Z,0
2016-06-02T01:48:23.198Z,0
2016-06-02T01:49:23.217Z,0
2016-06-02T01:50:23.250Z,0
2016-06-02T01:51:23.128Z,0
2016-06-02T01:52:23.147Z,0
2016-06-02T01:53:23.321Z,0
2016-06-02T01:54:23.198Z,0
2016-06-02T01:55:24.139Z,0
2016-06-02T01:56:23.391Z,0
2016-06-02T01:57:23.411Z,0
2016-06-02T01:58:37.634Z,0
2016-06-02T01:59:23.462Z,0
2016-06-02T02:00:23.339Z,0
2016-06-02T02:01:23.514Z,0
2016-06-02T02:02:37.722Z,0
2016-06-02T02:04:23.647Z,4
2016-06-02T02:05:37.809Z,4
2016-06-02T02:06:37.827Z,4
2016-06-02T02:07:23.374Z,4
2016-06-02T02:08:23.579Z,0
2016-06-02T02:09:23.708Z,4
2016-06-02T02:10:23.727Z,4
2016-06-02T02:11:23.744Z,4
2016-06-02T02:12:37.985Z,4
2016-06-02T02:13:23.797Z,4
2016-06-02T02:14:23.674Z,8
2016-06-02T02:15:23.848Z,8
2016-06-02T02:16:23.882Z,4
2016-06-02T02:18:38.109Z,12
2016-06-02T02:19:23.937Z,12
2016-06-02T02:20:23.972Z,12
2016-06-02T02:22:23.899Z,16
2016-06-02T02:23:24.042Z,16
2016-06-02T02:24:23.764Z,20
2016-06-02T02:26:23.973Z,24
2016-06-02T02:27:24.130Z,32
2016-06-02T02:28:24.008Z,32
2016-06-02T02:29:24.184Z,36
2016-06-02T02:30:24.217Z,40
2016-06-02T02:32:38.288Z,52
2016-06-02T02:33:24.288Z,56
2016-06-02T02:34:38.496Z,64
2016-06-02T02:35:24.168Z,68
2016-06-02T02:36:24.358Z,76
2016-06-02T02:37:24.377Z,88
2016-06-02T02:38:24.396Z,96
2016-06-02T02:39:24.429Z,108
2016-06-02T02:40:24.462Z,116
2016-06-02T02:42:24.343Z,136
2016-06-02T02:43:38.551Z,152
2016-06-02T02:44:24.551Z,160
2016-06-02T02:45:24.570Z,176
2016-06-02T02:46:38.778Z,192
2016-06-02T02:47:24.606Z,204
2016-06-02T02:48:24.641Z,216
2016-06-02T02:49:24.659Z,232
2016-06-02T02:50:38.868Z,252
2016-06-02T02:51:24.556Z,264
2016-06-02T02:52:24.745Z,284
2016-06-02T02:53:24.764Z,304
2016-06-02T02:54:24.625Z,324
2016-06-02T02:55:25.316Z,340
2016-06-02T02:56:24.819Z,360
2016-06-02T02:58:24.870Z,404
2016-06-02T02:59:39.095Z,432
2016-06-02T03:00:24.611Z,448
2016-06-02T03:01:39.131Z,476
2016-06-02T03:02:39.166Z,504
2016-06-02T03:03:24.994Z,524
2016-06-02T03:04:25.044Z,556
2016-06-02T03:05:39.235Z,596
2016-06-02T03:06:25.063Z,620
2016-06-02T03:07:39.132Z,664
2016-06-02T03:08:25.116Z,692
2016-06-02T03:09:25.135Z,724
2016-06-02T03:11:39.221Z,796
2016-06-02T03:12:25.237Z,820
2016-06-02T03:13:25.240Z,856
2016-06-02T03:14:25.118Z,892
2016-06-02T03:15:25.135Z,932
2016-06-02T03:16:39.500Z,976
2016-06-02T03:18:39.536Z,1032
2016-06-02T03:19:25.223Z,1044
2016-06-02T03:20:25.258Z,1056
2016-06-02T03:21:25.276Z,1056
2016-06-02T03:22:25.451Z,1048
2016-06-02T03:24:25.487Z,1048
2016-06-02T03:25:25.647Z,1080
2016-06-02T03:26:25.539Z,1100
2016-06-02T03:27:25.402Z,1120
2016-06-02T03:28:25.436Z,1140
2016-06-02T03:29:25.635Z,1164
2016-06-02T03:30:25.397Z,1184
2016-06-02T03:31:39.953Z,1224
2016-06-02T03:32:25.781Z,1248
2016-06-02T03:33:40.024Z,1288
2016-06-02T03:34:25.712Z,1312
2016-06-02T03:35:25.912Z,1360
2016-06-02T03:36:25.924Z,1416
2016-06-02T03:37:40.166Z,1504
2016-06-02T03:38:25.994Z,1564
2016-06-02T03:39:26.032Z,1632
2016-06-02T03:40:26.241Z,1688
2016-06-02T03:42:26.112Z,1792
2016-06-02T03:43:26.133Z,1868
2016-06-02T03:44:26.012Z,1932
2016-06-02T03:45:26.187Z,1980
2016-06-02T03:46:26.223Z,2020
2016-06-02T03:47:40.418Z,2092
2016-06-02T03:48:26.262Z,2140
2016-06-02T03:49:26.312Z,2192
2016-06-02T03:50:26.315Z,2232
2016-06-02T03:51:26.333Z,2260
2016-06-02T03:52:26.352Z,2260
2016-06-02T03:53:40.577Z,2244
2016-06-02T03:54:26.249Z,2252
2016-06-02T03:55:26.189Z,2284
2016-06-02T03:56:26.302Z,2340
2016-06-02T03:57:26.493Z,2380
2016-06-02T03:58:26.512Z,2372
2016-06-02T03:59:26.529Z,2292
2016-06-02T04:00:26.548Z,2196
2016-06-02T04:01:40.773Z,2136
2016-06-02T04:02:26.601Z,2136
2016-06-02T04:03:26.618Z,2144
2016-06-02T04:05:40.861Z,2288
2016-06-02T04:06:26.705Z,2380
2016-06-02T04:07:40.898Z,2588
2016-06-02T04:08:26.742Z,2756
2016-06-02T04:09:40.950Z,3044
2016-06-02T04:10:27.137Z,3216
2016-06-02T04:11:26.811Z,3360
2016-06-02T04:12:26.674Z,3432
2016-06-02T04:13:26.707Z,3472
2016-06-02T04:14:26.882Z,3476
2016-06-02T04:15:26.932Z,3460
2016-06-02T04:16:26.935Z,3452
2016-06-02T04:17:41.143Z,3428
2016-06-02T04:18:26.987Z,3384
2016-06-02T04:20:41.213Z,3120
2016-06-02T04:21:26.901Z,3012
2016-06-02T04:22:27.076Z,2892
2016-06-02T04:23:27.110Z,2796
2016-06-02T04:24:27.128Z,2720
2016-06-02T04:25:41.196Z,2604
2016-06-02T04:26:27.180Z,2560
2016-06-02T04:27:27.042Z,2544
2016-06-02T04:28:27.060Z,2592
2016-06-02T04:29:27.267Z,2620
2016-06-02T04:30:27.270Z,2544
2016-06-02T04:31:27.132Z,2364
2016-06-02T04:32:27.353Z,2160
2016-06-02T04:33:27.355Z,2008
2016-06-02T04:34:27.373Z,1908
2016-06-02T04:35:27.408Z,1828
2016-06-02T04:36:41.600Z,1708
2016-06-02T04:37:27.444Z,1632
2016-06-02T04:38:41.653Z,1524
2016-06-02T04:39:27.481Z,1476
2016-06-02T04:40:41.705Z,1452
2016-06-02T04:41:27.533Z,1460
2016-06-02T04:42:27.567Z,1500
2016-06-02T04:43:27.586Z,1552
2016-06-02T04:44:27.603Z,1596
2016-06-02T04:45:27.638Z,1648
2016-06-02T04:46:27.655Z,1724
2016-06-02T04:47:27.675Z,1796
2016-06-02T04:48:27.708Z,1824
2016-06-02T04:49:27.586Z,1780
2016-06-02T04:50:27.760Z,1676
2016-06-02T04:51:41.812Z,1532
2016-06-02T04:52:27.812Z,1468
2016-06-02T04:53:27.831Z,1432
2016-06-02T04:54:42.430Z,1456
2016-06-02T04:55:27.868Z,1508
2016-06-02T04:56:27.885Z,1624
2016-06-02T04:57:27.920Z,1800
2016-06-02T04:58:27.938Z,2048
2016-06-02T04:59:27.987Z,2332
2016-06-02T05:00:27.990Z,2560
2016-06-02T05:01:28.024Z,2716
2016-06-02T05:02:42.234Z,2900
2016-06-02T05:03:28.093Z,3044
2016-06-02T05:04:28.079Z,3288
2016-06-02T05:05:28.098Z,3640
2016-06-02T05:06:28.131Z,4172
2016-06-02T05:07:42.339Z,5028
2016-06-02T05:08:28.074Z,5360
2016-06-02T05:09:28.045Z,7440
2016-06-02T05:10:28.752Z,12620
2016-06-02T05:11:28.255Z,9980
2016-06-02T05:12:42.463Z,7872
2016-06-02T05:14:28.325Z,16064
2016-06-02T05:15:28.344Z,10256
2016-06-02T05:16:28.221Z,10780
2016-06-02T05:17:28.396Z,10616
2016-06-02T05:18:42.448Z,8060
2016-06-02T05:20:28.482Z,5468
2016-06-02T05:21:28.499Z,4740
2016-06-02T05:22:28.363Z,4164
2016-06-02T05:23:28.380Z,3656
2016-06-02T05:24:40.727Z,3160
2016-06-02T05:25:29.057Z,2792
2016-06-02T05:26:28.654Z,2500
2016-06-02T05:27:28.657Z,2292
2016-06-02T05:28:42.693Z,2120
2016-06-02T05:29:28.693Z,2056
2016-06-02T05:30:28.556Z,1996
2016-06-02T05:31:42.936Z,1944
2016-06-02T05:32:28.623Z,1928
2016-06-02T05:33:42.988Z,1892
2016-06-02T05:34:28.817Z,1848
2016-06-02T05:35:28.835Z,1788
2016-06-02T05:36:28.853Z,1756
2016-06-02T05:37:43.078Z,1828
2016-06-02T05:38:28.906Z,1964
2016-06-02T05:39:28.939Z,2216
2016-06-02T05:40:28.817Z,2468
2016-06-02T05:41:43.166Z,2720
2016-06-02T05:42:29.025Z,2892
2016-06-02T05:43:28.887Z,3004
2016-06-02T05:44:43.252Z,2760
2016-06-02T05:45:28.924Z,2608
2016-06-02T05:46:29.113Z,2504
2016-06-02T05:47:28.977Z,2500
2016-06-02T05:48:29.166Z,2504
2016-06-02T05:49:29.185Z,2556
2016-06-02T05:50:29.235Z,2692
2016-06-02T05:51:29.252Z,2828
2016-06-02T05:52:29.255Z,2928
2016-06-02T05:53:29.117Z,3056
2016-06-02T05:54:29.308Z,3320
2016-06-02T05:55:29.185Z,3580
2016-06-02T05:56:29.344Z,3768
2016-06-02T05:57:29.378Z,4124
2016-06-02T05:58:29.412Z,4784
2016-06-02T05:59:29.274Z,5800
2016-06-02T06:00:43.637Z,7504
2016-06-02T06:01:29.482Z,8420
2016-06-02T06:02:29.345Z,9088
2016-06-02T06:03:29.520Z,8876
2016-06-02T06:04:43.740Z,7440
2016-06-02T06:05:29.571Z,6636
2016-06-02T06:07:29.624Z,6080
2016-06-02T06:08:29.658Z,6548
2016-06-02T06:09:29.832Z,7308
2016-06-02T06:10:30.289Z,8264
2016-06-02T06:11:43.931Z,9608
2016-06-02T06:12:29.747Z,10516
2016-06-02T06:13:29.781Z,21824
2016-06-02T06:14:29.799Z,12116
2016-06-02T06:15:44.005Z,12076
2016-06-02T06:16:29.851Z,12724
2016-06-02T06:17:29.869Z,14172
2016-06-02T06:18:29.903Z,16732
2016-06-02T06:19:29.922Z,25440
2016-06-02T06:20:29.956Z,26400
2016-06-02T06:21:29.990Z,27936
2016-06-02T06:22:30.007Z,62304
2016-06-02T06:24:29.905Z,63392
2016-06-02T06:25:30.032Z,66784
2016-06-02T06:26:44.300Z,69952
2016-06-02T06:27:30.147Z,69888
2016-06-02T06:28:44.352Z,70208
2016-06-02T06:29:30.027Z,67744
2016-06-02T06:31:30.251Z,70336
2016-06-02T06:32:30.285Z,67136
2016-06-02T06:33:30.147Z,62496
2016-06-02T06:34:30.337Z,61664
2016-06-02T06:35:30.215Z,66080
2016-06-02T06:36:44.577Z,68064
2016-06-02T06:37:30.440Z,66336
2016-06-02T06:38:30.457Z,64704
2016-06-02T06:39:30.507Z,64160
2016-06-02T06:40:31.165Z,62912
2016-06-02T06:41:30.543Z,64960
2016-06-02T06:42:30.578Z,65664
2016-06-02T06:43:30.611Z,66592
2016-06-02T06:44:44.817Z,67904
2016-06-02T06:45:30.678Z,67712
2016-06-02T06:46:44.886Z,64256
2016-06-02T06:48:30.766Z,62432
2016-06-02T06:49:30.799Z,62656
2016-06-02T06:51:30.867Z,64736
2016-06-02T06:52:30.916Z,61568
2016-06-02T06:53:30.950Z,63904
2016-06-02T06:54:30.969Z,59616
2016-06-02T06:55:31.019Z,55264
2016-06-02T06:56:30.880Z,48960
2016-06-02T06:57:31.071Z,68512
2016-06-02T06:58:30.963Z,51680
2016-06-02T06:59:30.982Z,60096
2016-06-02T07:00:31.188Z,55392
2016-06-02T07:01:31.238Z,58304
2016-06-02T07:02:31.099Z,68896
2016-06-02T07:03:45.493Z,67904
2016-06-02T07:04:31.324Z,66208
2016-06-02T07:05:31.342Z,66720
2016-06-02T07:06:31.392Z,66688
2016-06-02T07:07:45.441Z,66368
2016-06-02T07:08:31.444Z,64064
2016-06-02T07:09:31.915Z,64480
2016-06-02T07:10:45.731Z,65248
2016-06-02T07:11:45.748Z,63488
2016-06-02T07:12:45.784Z,66560
2016-06-02T07:13:45.864Z,65216
2016-06-02T07:14:31.538Z,62912
2016-06-02T07:15:45.885Z,63584
2016-06-02T07:16:31.731Z,61792
2016-06-02T07:17:31.765Z,61888
2016-06-02T07:18:31.815Z,63776
2016-06-02T07:19:46.021Z,62304
2016-06-02T07:20:31.726Z,63232
2016-06-02T07:21:31.933Z,61376
2016-06-02T07:22:31.795Z,60992
2016-06-02T07:23:31.828Z,63232
2016-06-02T07:24:32.019Z,61120
2016-06-02T07:25:32.334Z,61600
2016-06-02T07:26:31.930Z,64544
2016-06-02T07:27:32.121Z,63904
2016-06-02T07:28:32.170Z,64064
2016-06-02T07:29:32.047Z,64032
2016-06-02T07:30:32.222Z,65088
2016-06-02T07:31:32.257Z,63328
2016-06-02T07:32:46.493Z,62208
2016-06-02T07:33:32.355Z,62656
2016-06-02T07:34:32.374Z,61760
2016-06-02T07:35:46.596Z,61056
2016-06-02T07:36:32.285Z,62144
2016-06-02T07:37:32.476Z,62272
2016-06-02T07:38:32.525Z,61856
2016-06-02T07:39:32.606Z,61024
2016-06-02T07:40:33.374Z,63872
2016-06-02T07:41:32.487Z,63104
2016-06-02T07:42:32.504Z,61312
2016-06-02T07:43:32.695Z,61824
2016-06-02T07:44:32.587Z,61472
2016-06-02T07:45:32.762Z,60224
2016-06-02T07:46:32.687Z,60160
2016-06-02T07:47:32.862Z,61696
2016-06-02T07:48:47.068Z,62240
2016-06-02T07:49:32.773Z,61664
2016-06-02T07:50:47.136Z,61824
2016-06-02T07:51:32.981Z,61056
2016-06-02T07:52:33.031Z,57760
2016-06-02T07:53:33.081Z,61248
2016-06-02T07:54:33.147Z,63104
2016-06-02T07:55:33.383Z,58912
2016-06-02T07:56:33.167Z,59520
2016-06-02T07:57:47.404Z,61504
2016-06-02T07:58:33.250Z,61632
2016-06-02T07:59:33.144Z,59456
2016-06-02T08:01:33.041Z,60928
2016-06-02T08:02:33.246Z,58208
2016-06-02T08:03:33.420Z,50976
2016-06-02T08:04:33.470Z,37504
2016-06-02T08:05:33.504Z,25376
2016-06-02T08:06:33.381Z,22528
2016-06-02T08:07:33.572Z,22432
2016-06-02T08:08:33.449Z,22752
2016-06-02T08:09:34.483Z,22976
2016-06-02T08:11:33.723Z,23200
2016-06-02T08:12:47.787Z,23296
2016-06-02T08:13:33.791Z,16016
2016-06-02T08:14:33.825Z,22016
2016-06-02T08:15:48.061Z,23392
2016-06-02T08:16:33.908Z,23360
2016-06-02T08:17:33.942Z,16212
2016-06-02T08:18:48.164Z,21376
2016-06-02T08:19:34.010Z,21824
2016-06-02T08:20:34.060Z,22400
2016-06-02T08:22:48.300Z,21696
2016-06-02T08:23:34.005Z,15196
2016-06-02T08:24:34.274Z,13304
2016-06-02T08:25:33.948Z,16788
2016-06-02T08:26:34.264Z,23232
2016-06-02T08:27:34.313Z,22560
2016-06-02T08:28:34.331Z,22208
2016-06-02T08:29:34.365Z,21920
2016-06-02T08:30:34.430Z,21088
2016-06-02T08:31:34.277Z,20512
2016-06-02T08:32:48.499Z,20640
2016-06-02T08:33:48.704Z,20704
2016-06-02T08:34:48.738Z,20992
2016-06-02T08:35:34.600Z,21184
2016-06-02T08:36:34.619Z,21056
2016-06-02T08:37:34.652Z,21184
2016-06-02T08:38:48.904Z,21504
2016-06-02T08:39:34.439Z,20928
2016-06-02T08:40:34.473Z,20320
2016-06-02T08:41:48.990Z,20000
2016-06-02T08:42:34.853Z,19552
2016-06-02T08:43:34.715Z,19456
2016-06-02T08:44:34.905Z,19488
2016-06-02T08:45:34.939Z,19584
2016-06-02T08:46:34.833Z,19552
2016-06-02T08:47:35.007Z,19648
2016-06-02T08:48:35.056Z,19360
2016-06-02T08:49:35.091Z,18976
2016-06-02T08:50:35.125Z,19232
2016-06-02T08:51:49.361Z,16744
2016-06-02T08:52:35.209Z,18560
2016-06-02T08:53:35.242Z,18336
2016-06-02T08:54:49.308Z,17760
2016-06-02T08:55:36.903Z,19200
2016-06-02T08:56:35.344Z,19456
2016-06-02T08:57:35.377Z,19776
2016-06-02T08:58:35.411Z,19968
2016-06-02T08:59:35.305Z,19936
2016-06-02T09:00:35.511Z,19392
2016-06-02T09:01:35.530Z,19008
2016-06-02T09:02:35.563Z,14380
2016-06-02T09:03:35.597Z,10944
2016-06-02T09:04:35.615Z,10696
2016-06-02T09:05:35.681Z,11048
2016-06-02T09:07:35.733Z,12760
2016-06-02T09:08:35.611Z,12868
2016-06-02T09:09:35.660Z,10288
2016-06-02T09:10:50.257Z,18720
2016-06-02T09:11:35.729Z,14060
2016-06-02T09:12:35.949Z,17984
2016-06-02T09:13:35.936Z,17984
2016-06-02T09:14:35.970Z,18368
2016-06-02T09:15:35.849Z,18656
2016-06-02T09:16:36.039Z,19136
2016-06-02T09:17:36.073Z,19840
2016-06-02T09:18:36.106Z,20032
2016-06-02T09:19:36.156Z,14708
2016-06-02T09:20:36.190Z,17920
2016-06-02T09:21:36.223Z,12052
2016-06-02T09:22:50.446Z,11236
2016-06-02T09:23:36.292Z,11784
2016-06-02T09:24:36.326Z,20000
2016-06-02T09:25:50.391Z,19040
2016-06-02T09:26:36.393Z,21408
2016-06-02T09:27:36.428Z,21056
2016-06-02T09:28:36.306Z,21184
2016-06-02T09:29:36.495Z,16620
2016-06-02T09:30:36.530Z,14680
2016-06-02T09:31:36.547Z,15424
2016-06-02T09:32:36.582Z,21408
2016-06-02T09:34:36.665Z,11284
2016-06-02T09:35:36.543Z,10092
2016-06-02T09:36:50.764Z,10256
2016-06-02T09:37:50.939Z,17600
2016-06-02T09:38:36.801Z,11380
2016-06-02T09:39:36.757Z,12396
2016-06-02T09:40:42.118Z,10620
2016-06-02T09:41:36.747Z,10344
2016-06-02T09:42:36.937Z,11448
2016-06-02T09:43:36.955Z,18048
2016-06-02T09:44:36.989Z,17504
2016-06-02T09:45:37.023Z,17216
2016-06-02T09:46:37.056Z,11224
2016-06-02T09:47:37.091Z,9544
2016-06-02T09:48:37.125Z,9824
2016-06-02T09:49:37.159Z,10252
2016-06-02T09:50:37.037Z,17024
2016-06-02T09:51:37.070Z,19008
2016-06-02T09:52:37.089Z,19008
2016-06-02T09:53:37.294Z,16780
2016-06-02T09:54:37.673Z,10840
2016-06-02T09:55:38.097Z,10840
2016-06-02T09:56:37.397Z,9988
2016-06-02T09:57:51.602Z,16564
2016-06-02T09:58:37.448Z,16512
2016-06-02T09:59:37.483Z,16612
2016-06-02T10:00:37.517Z,17088
2016-06-02T10:01:37.550Z,17504
2016-06-02T10:02:37.428Z,17728
2016-06-02T10:03:37.619Z,17376
2016-06-02T10:04:37.636Z,17024
2016-06-02T10:05:37.686Z,9600
2016-06-02T10:06:51.908Z,9256
2016-06-02T10:07:37.754Z,9516
2016-06-02T10:08:37.772Z,9552
2016-06-02T10:09:37.665Z,9532
2016-06-02T10:10:38.091Z,15772
2016-06-02T10:11:37.874Z,15920
2016-06-02T10:12:37.923Z,16032
2016-06-02T10:13:52.176Z,10524
2016-06-02T10:14:37.820Z,10716
2016-06-02T10:15:38.010Z,15012
2016-06-02T10:16:38.028Z,13472
2016-06-02T10:17:37.921Z,8436
2016-06-02T10:18:38.095Z,7784
2016-06-02T10:19:38.146Z,7776
2016-06-02T10:21:38.042Z,8452
2016-06-02T10:22:38.232Z,11572
2016-06-02T10:23:38.266Z,8512
2016-06-02T10:24:38.159Z,8720
2016-06-02T10:25:38.771Z,10924
2016-06-02T10:26:38.211Z,12016
2016-06-02T10:27:52.574Z,11632
2016-06-02T10:30:38.488Z,14484
2016-06-02T10:31:52.709Z,14776
2016-06-02T10:32:38.399Z,14752
2016-06-02T10:33:52.777Z,13448
2016-06-02T10:34:52.827Z,11396
2016-06-02T10:35:38.642Z,7804
2016-06-02T10:36:38.691Z,8028
2016-06-02T10:37:38.710Z,10124
2016-06-02T10:38:52.931Z,12656
2016-06-02T10:39:38.887Z,13812
2016-06-02T10:40:38.671Z,14784
2016-06-02T10:41:38.829Z,13348
2016-06-02T10:42:38.863Z,11356
2016-06-02T10:43:38.898Z,14576
2016-06-02T10:44:38.776Z,14776
2016-06-02T10:45:53.153Z,14924
2016-06-02T10:46:38.999Z,15140
2016-06-02T10:47:39.034Z,15284
2016-06-02T10:48:38.912Z,9636
2016-06-02T10:49:39.101Z,15200
2016-06-02T10:50:39.120Z,15024
2016-06-02T10:51:39.170Z,14308
2016-06-02T10:52:39.032Z,13552
2016-06-02T10:53:39.221Z,8952
2016-06-02T10:54:39.818Z,12684
2016-06-02T10:55:39.445Z,12488
2016-06-02T10:58:39.376Z,6808
2016-06-02T10:59:39.394Z,6832
2016-06-02T11:00:53.615Z,7240
2016-06-02T11:01:39.461Z,7352
2016-06-02T11:02:39.339Z,7492
2016-06-02T11:03:39.373Z,7868
2016-06-02T11:04:39.408Z,12628
2016-06-02T11:05:39.441Z,12604
2016-06-02T11:06:39.303Z,6940
2016-06-02T11:07:39.369Z,6120
2016-06-02T11:08:39.700Z,5988
2016-06-02T11:09:39.577Z,5684
2016-06-02T11:10:39.610Z,5468
2016-06-02T11:11:39.785Z,5660
2016-06-02T11:12:54.007Z,6616
2016-06-02T11:14:39.872Z,6448
2016-06-02T11:15:39.890Z,10664
2016-06-02T11:17:39.958Z,10372
2016-06-02T11:18:39.993Z,9288
2016-06-02T11:19:40.026Z,5836
2016-06-02T11:20:40.043Z,5304
2016-06-02T11:21:40.078Z,5124
2016-06-02T11:22:40.112Z,5012
2016-06-02T11:23:40.146Z,4788
2016-06-02T11:24:40.211Z,4652
2016-06-02T11:25:40.448Z,4560
2016-06-02T11:26:54.434Z,4556
2016-06-02T11:27:40.250Z,4552
2016-06-02T11:28:40.347Z,4572
2016-06-02T11:29:40.162Z,4648
2016-06-02T11:30:40.353Z,4720
2016-06-02T11:31:40.370Z,4724
2016-06-02T11:32:54.591Z,4804
2016-06-02T11:33:40.439Z,4860
2016-06-02T11:34:40.456Z,5016
2016-06-02T11:35:40.491Z,5136
2016-06-02T11:36:40.369Z,5188
2016-06-02T11:37:40.558Z,5252
2016-06-02T11:38:54.780Z,5384
2016-06-02T11:39:40.486Z,5676
2016-06-02T11:41:40.663Z,6572
2016-06-02T11:42:40.697Z,6548
2016-06-02T11:43:54.919Z,6676
2016-06-02T11:44:40.765Z,6932
2016-06-02T11:45:40.799Z,6812
2016-06-02T11:46:40.818Z,8480
2016-06-02T11:47:40.866Z,6096
2016-06-02T11:48:55.057Z,5660
2016-06-02T11:49:55.106Z,5788
2016-06-02T11:50:40.937Z,5580
2016-06-02T11:51:40.971Z,5040
2016-06-02T11:52:41.005Z,4896
2016-06-02T11:53:40.727Z,4788
2016-06-02T11:54:41.964Z,4684
2016-06-02T11:55:41.842Z,4644
2016-06-02T11:56:41.126Z,4684
2016-06-02T11:57:41.159Z,4780
2016-06-02T11:58:55.365Z,4948
2016-06-02T11:59:41.227Z,5100
2016-06-02T12:00:41.090Z,5336
2016-06-02T12:01:41.264Z,5572
2016-06-02T12:02:41.142Z,5836
2016-06-02T12:03:41.316Z,6160
2016-06-02T12:04:55.537Z,6604
2016-06-02T12:05:41.071Z,6880
2016-06-02T12:06:41.246Z,7148
2016-06-02T12:07:41.436Z,7284
2016-06-02T12:08:41.455Z,7360
2016-06-02T12:09:41.520Z,7404
2016-06-02T12:10:41.600Z,7368
2016-06-02T12:11:41.555Z,7348
2016-06-02T12:12:41.434Z,7424
2016-06-02T12:13:55.624Z,7596
2016-06-02T12:14:41.471Z,7684
2016-06-02T12:15:41.661Z,7724
2016-06-02T12:16:41.694Z,7680
2016-06-02T12:17:41.729Z,7592
2016-06-02T12:18:41.762Z,7484
2016-06-02T12:19:55.968Z,7316
2016-06-02T12:20:55.846Z,7152
2016-06-02T12:21:41.849Z,7088
2016-06-02T12:22:41.710Z,7032
2016-06-02T12:23:41.901Z,7008
2016-06-02T12:24:42.982Z,6992
2016-06-02T12:25:41.891Z,7108
2016-06-02T12:26:41.831Z,7500
2016-06-02T12:27:42.021Z,7712
2016-06-02T12:28:42.040Z,8392
2016-06-02T12:29:56.261Z,11976
2016-06-02T12:30:42.107Z,13272
2016-06-02T12:31:42.125Z,10464
2016-06-02T12:32:42.160Z,9540
2016-06-02T12:33:42.194Z,9572
2016-06-02T12:34:42.081Z,9568
2016-06-02T12:37:42.406Z,9372
2016-06-02T12:38:42.468Z,9344
2016-06-02T12:39:42.367Z,9416
2016-06-02T12:40:42.567Z,9676
2016-06-02T12:41:56.783Z,9672
2016-06-02T12:42:42.468Z,9696
2016-06-02T12:43:42.668Z,12336
2016-06-02T12:44:42.553Z,12644
2016-06-02T12:45:42.590Z,12240
2016-06-02T12:46:42.785Z,11348
2016-06-02T12:47:42.649Z,10600
2016-06-02T12:48:57.015Z,9052
2016-06-02T12:50:42.603Z,7552
2016-06-02T12:51:42.950Z,6984
2016-06-02T12:52:42.969Z,6704
2016-06-02T12:53:42.989Z,6416
2016-06-02T12:54:43.477Z,6228
2016-06-02T12:55:43.215Z,6112
2016-06-02T12:56:43.093Z,6016
2016-06-02T12:57:43.127Z,5924
2016-06-02T12:58:43.146Z,5920
2016-06-02T12:59:43.164Z,5992
2016-06-02T13:00:43.199Z,6096
2016-06-02T13:01:43.234Z,6216
2016-06-02T13:02:43.111Z,6384
2016-06-02T13:03:57.473Z,6584
2016-06-02T13:04:43.320Z,6632
2016-06-02T13:05:43.354Z,6668
2016-06-02T13:06:43.372Z,6740
2016-06-02T13:07:57.593Z,6936
2016-06-02T13:08:43.440Z,7076
2016-06-02T13:09:44.662Z,7184
2016-06-02T13:10:43.509Z,7184
2016-06-02T13:11:43.542Z,7128
2016-06-02T13:12:43.560Z,7040
2016-06-02T13:13:43.595Z,6956
2016-06-02T13:14:43.613Z,6852
2016-06-02T13:15:43.490Z,6740
2016-06-02T13:16:43.665Z,6716
2016-06-02T13:17:57.887Z,6764
2016-06-02T13:19:43.751Z,6692
2016-06-02T13:20:43.628Z,6664
2016-06-02T13:21:43.819Z,6636
2016-06-02T13:22:43.853Z,6936
2016-06-02T13:23:58.059Z,6220
2016-06-02T13:24:43.905Z,6060
2016-06-02T13:25:43.939Z,6020
2016-06-02T13:26:43.972Z,5840
2016-06-02T13:27:44.054Z,5804
2016-06-02T13:28:58.057Z,5840
2016-06-02T13:29:43.903Z,5848
2016-06-02T13:30:58.265Z,5824
2016-06-02T13:31:44.111Z,5832
2016-06-02T13:32:43.989Z,5892
2016-06-02T13:33:44.008Z,5976
2016-06-02T13:34:44.198Z,6152
2016-06-02T13:35:44.216Z,6500
2016-06-02T13:36:58.438Z,8332
2016-06-02T13:37:44.284Z,7956
2016-06-02T13:39:58.539Z,8600
2016-06-02T13:40:44.371Z,8476
2016-06-02T13:41:44.404Z,8664
2016-06-02T13:42:44.423Z,8468
2016-06-02T13:43:44.285Z,8752
2016-06-02T13:44:44.490Z,8180
2016-06-02T13:45:44.508Z,8004
2016-06-02T13:46:44.387Z,8304
2016-06-02T13:47:58.592Z,8268
2016-06-02T13:48:44.595Z,8180
2016-06-02T13:49:44.472Z,8508
2016-06-02T13:50:44.662Z,8764
2016-06-02T13:51:44.540Z,8544
2016-06-02T13:52:44.559Z,8708
2016-06-02T13:53:44.749Z,8868
2016-06-02T13:54:44.767Z,8616
2016-06-02T13:55:58.942Z,8336
2016-06-02T13:56:44.663Z,8160
2016-06-02T13:57:44.697Z,8256
2016-06-02T13:58:59.075Z,8328
2016-06-02T13:59:44.905Z,8448
2016-06-02T14:00:44.799Z,8436
2016-06-02T14:01:44.974Z,8512
2016-06-02T14:02:45.007Z,8496
2016-06-02T14:03:45.026Z,8424
2016-06-02T14:04:45.060Z,8260
2016-06-02T14:05:45.094Z,7836
2016-06-02T14:06:45.127Z,7272
2016-06-02T14:07:59.021Z,5876
2016-06-02T14:09:45.760Z,7348
2016-06-02T14:10:59.670Z,7308
2016-06-02T14:11:45.266Z,5892
2016-06-02T14:13:45.318Z,4648
2016-06-02T14:14:45.196Z,4616
2016-06-02T14:15:45.371Z,6872